Time;durP1;ratioP1;P1;durP2;ratioP2;P2;SDS_P1;SDS_P2;PMS_P1;PMS_P2;Temp;Humidity;BMP_temperature;BMP_pressure;BME280_temperature;BME280_humidity;BME280_pressure;Samples;Min_cycle;Max_cycle;Signal;HPM_P1;HPM_P2
2021/06/22 00:02:22;;;;;;;19.23;4.78;;;;;;;23.14;65.59;97219.94;4994596;28;20041;-80
2021/06/22 00:04:48;;;;;;;22.38;6.75;;;;;;;23.19;66.02;97236.28;4994754;28;20118;-80
2021/06/22 00:07:17;;;;;;;20.23;5.10;;;;;;;23.18;65.99;97232.69;4993130;28;20070;-81
2021/06/22 00:09:43;;;;;;;19.33;5.13;;;;;;;23.11;66.09;97226.31;4976844;28;20034;-81
2021/06/22 00:12:09;;;;;;;19.02;5.75;;;;;;;23.21;66.39;97237.47;4976987;28;20395;-80
2021/06/22 00:14:34;;;;;;;12.43;4.25;;;;;;;23.22;65.87;97232.69;4994583;28;20030;-80
2021/06/22 00:16:59;;;;;;;15.93;5.10;;;;;;;23.23;66.52;97234.31;4994723;28;20404;-82
2021/06/22 00:19:25;;;;;;;18.52;4.53;;;;;;;23.28;65.88;97248.66;5004608;28;20078;-80
2021/06/22 00:21:50;;;;;;;21.95;5.30;;;;;;;23.17;65.88;97225.53;4997832;28;20094;-80
2021/06/22 00:24:16;;;;;;;24.38;6.32;;;;;;;23.28;66.27;97247.84;4993172;28;20018;-80
2021/06/22 00:26:41;;;;;;;21.63;5.97;;;;;;;23.09;66.56;97232.28;4992312;28;20030;-80
2021/06/22 00:29:06;;;;;;;15.25;5.38;;;;;;;23.20;66.59;97249.84;4993992;28;20084;-80
2021/06/22 00:31:32;;;;;;;22.55;5.97;;;;;;;23.12;66.80;97231.47;4993967;28;20038;-81
2021/06/22 00:33:57;;;;;;;20.50;6.18;;;;;;;23.11;67.18;97237.47;4976359;28;20058;-79
2021/06/22 00:36:23;;;;;;;17.90;5.50;;;;;;;23.03;67.16;97235.84;4993699;28;20030;-80
2021/06/22 00:38:48;;;;;;;17.98;5.50;;;;;;;22.98;67.38;97234.25;4976315;28;20010;-80
2021/06/22 00:41:13;;;;;;;18.00;4.75;;;;;;;22.93;67.52;97226.25;4991616;28;20022;-80
2021/06/22 00:43:39;;;;;;;19.33;4.72;;;;;;;22.92;67.38;97224.66;4993408;28;20558;-79
2021/06/22 00:46:05;;;;;;;15.50;3.95;;;;;;;23.04;67.34;97241.03;4993596;28;20102;-80
2021/06/22 00:48:31;;;;;;;21.15;4.82;;;;;;;22.98;67.58;97239.81;4997307;28;20092;-79
2021/06/22 00:50:57;;;;;;;13.35;4.82;;;;;;;23.02;67.25;97235.06;4992723;28;20173;-80
2021/06/22 00:53:22;;;;;;;20.45;4.82;;;;;;;23.00;67.80;97231.84;4993638;28;20475;-80
2021/06/22 00:55:52;;;;;;;24.77;5.85;;;;;;;23.05;67.56;97237.06;4975642;28;20026;-80
2021/06/22 00:58:18;;;;;;;18.45;5.38;;;;;;;22.93;68.20;97234.59;4993493;28;20080;-83
2021/06/22 01:00:44;;;;;;;19.10;5.18;;;;;;;22.93;67.95;97237.41;4992352;28;20037;-82
2021/06/22 01:03:09;;;;;;;15.57;4.55;;;;;;;22.93;67.80;97226.25;4976381;28;20387;-82
2021/06/22 01:05:34;;;;;;;15.00;4.75;;;;;;;22.98;67.73;97228.66;4993627;28;20023;-80
2021/06/22 01:08:01;;;;;;;13.70;4.68;;;;;;;22.95;68.12;97229.44;4992187;28;20033;-81
2021/06/22 01:10:26;;;;;;;12.35;4.95;;;;;;;22.88;67.84;97219.06;4992166;28;20019;-79
2021/06/22 01:12:55;;;;;;;21.20;4.78;;;;;;;22.78;68.01;97213.44;4991916;28;20026;-80
2021/06/22 01:15:26;;;;;;;11.27;4.93;;;;;;;22.75;67.86;97217.81;4992752;28;20030;-82
2021/06/22 01:17:57;;;;;;;15.40;4.43;;;;;;;22.55;68.68;97207.38;4991949;28;21088;-80
2021/06/22 01:20:30;;;;;;;16.02;4.78;;;;;;;22.47;68.53;97206.53;4993449;28;20483;-81
2021/06/22 01:22:57;;;;;;;18.13;4.97;;;;;;;22.49;69.01;97212.50;4976009;28;20525;-81
2021/06/22 01:25:22;;;;;;;18.10;5.28;;;;;;;22.52;68.84;97227.66;4993212;28;20030;-81
2021/06/22 01:27:48;;;;;;;19.45;5.13;;;;;;;22.39;68.99;97221.63;4992615;28;20048;-82
2021/06/22 01:30:14;;;;;;;15.07;4.70;;;;;;;22.36;69.39;97217.63;4991789;28;20050;-82
2021/06/22 01:32:39;;;;;;;20.33;5.43;;;;;;;22.37;69.29;97224.00;4975873;28;20026;-81
2021/06/22 01:35:06;;;;;;;25.98;5.97;;;;;;;22.27;69.84;97219.94;4991379;28;20391;-81
2021/06/22 01:37:31;;;;;;;10.57;4.25;;;;;;;22.33;69.88;97226.75;4992649;28;20030;-80
2021/06/22 01:40:01;;;;;;;20.15;5.00;;;;;;;22.32;69.91;97227.16;4992556;28;20030;-80
2021/06/22 01:42:26;;;;;;;27.63;5.40;;;;;;;22.11;70.16;97205.56;4993108;28;20034;-83
2021/06/22 01:44:54;;;;;;;19.08;4.97;;;;;;;22.02;70.45;97209.88;4991530;28;20026;-82
2021/06/22 01:47:19;;;;;;;18.40;4.60;;;;;;;22.04;70.87;97215.84;4975144;28;20061;-81
2021/06/22 01:49:44;;;;;;;15.45;4.53;;;;;;;22.08;70.54;97234.19;4991376;28;20030;-79
2021/06/22 01:52:14;;;;;;;21.25;4.80;;;;;;;22.05;70.78;97223.03;4975596;28;20100;-81
2021/06/22 01:54:39;;;;;;;23.35;6.18;;;;;;;22.11;71.25;97232.63;4991240;28;20527;-80
2021/06/22 01:57:05;;;;;;;22.85;6.55;;;;;;;22.11;71.69;97238.19;4992089;28;20090;-80
2021/06/22 01:59:30;;;;;;;22.17;7.63;;;;;;;22.04;71.68;97236.16;4991336;28;20040;-80
2021/06/22 02:01:56;;;;;;;9.00;4.15;;;;;;;22.15;71.03;97236.19;4992430;28;20471;-81
2021/06/22 02:04:22;;;;;;;25.20;6.93;;;;;;;22.10;71.54;97245.75;4992943;28;20032;-80
2021/06/22 02:06:48;;;;;;;12.82;5.18;;;;;;;21.96;71.90;97240.06;4974307;28;20058;-81
2021/06/22 02:09:13;;;;;;;28.00;6.20;;;;;;;21.92;72.60;97241.22;4992100;28;20076;-80
2021/06/22 02:11:38;;;;;;;17.67;5.53;;;;;;;22.00;72.07;97243.69;4992265;28;20030;-81
2021/06/22 02:14:05;;;;;;;15.90;4.43;;;;;;;21.98;71.93;97234.91;4992152;28;20501;-81
2021/06/22 02:16:31;;;;;;;15.65;4.07;;;;;;;22.01;72.21;97252.84;4992162;28;20027;-81
2021/06/22 02:18:57;;;;;;;14.60;4.97;;;;;;;22.00;71.67;97252.03;4992745;28;20380;-84
2021/06/22 02:21:22;;;;;;;15.70;4.72;;;;;;;22.02;71.35;97243.31;4991433;28;20484;-82
2021/06/22 02:23:48;;;;;;;10.50;3.95;;;;;;;22.05;71.10;97245.31;4990864;28;20031;-82
2021/06/22 02:26:13;;;;;;;19.88;5.07;;;;;;;22.09;71.09;97249.69;4990999;28;20626;-82
2021/06/22 02:28:38;;;;;;;21.83;5.55;;;;;;;22.09;71.68;97269.22;4991855;28;20037;-81
2021/06/22 02:31:04;;;;;;;22.42;5.30;;;;;;;21.98;71.79;97265.56;4992323;28;20442;-81
2021/06/22 02:33:29;;;;;;;17.83;5.68;;;;;;;21.97;71.88;97269.53;4992134;28;20467;-80
2021/06/22 02:35:55;;;;;;;18.27;5.18;;;;;;;22.07;71.27;97270.78;4975338;28;20027;-81
2021/06/22 02:38:20;;;;;;;12.27;5.80;;;;;;;22.15;70.74;97270.44;4993226;28;20034;-82
2021/06/22 02:40:46;;;;;;;16.77;4.65;;;;;;;22.07;70.41;97263.22;4997952;28;20026;-82
2021/06/22 02:43:13;;;;;;;19.60;5.97;;;;;;;22.06;70.58;97271.97;4996079;28;20023;-81
2021/06/22 02:45:39;;;;;;;16.52;6.13;;;;;;;22.04;71.03;97266.78;4991926;28;20027;-80
2021/06/22 02:48:05;;;;;;;16.35;5.60;;;;;;;22.04;70.81;97277.13;4990362;28;20038;-82
2021/06/22 02:50:30;;;;;;;17.38;4.95;;;;;;;21.98;71.18;97273.13;4974000;28;20041;-80
2021/06/22 02:52:56;;;;;;;13.40;4.90;;;;;;;21.82;71.55;97259.44;4990254;28;20022;-80
2021/06/22 02:55:21;;;;;;;13.38;6.18;;;;;;;21.86;71.87;97263.06;4974353;28;20038;-81
2021/06/22 02:57:49;;;;;;;16.00;4.95;;;;;;;21.83;71.86;97267.38;4991515;28;20038;-81
2021/06/22 03:00:19;;;;;;;21.90;5.90;;;;;;;21.81;71.40;97250.28;4992016;28;20026;-81
2021/06/22 03:02:46;;;;;;;16.13;7.38;;;;;;;21.83;71.79;97255.47;4991519;28;20118;-80
2021/06/22 03:05:13;;;;;;;11.60;5.03;;;;;;;21.81;71.82;97252.25;4991310;28;20475;-81
2021/06/22 03:07:39;;;;;;;18.30;6.45;;;;;;;21.72;72.26;97257.34;4991577;28;20057;-81
2021/06/22 03:10:07;;;;;;;17.75;6.18;;;;;;;21.70;72.51;97262.50;4990467;28;20072;-81
2021/06/22 03:12:33;;;;;;;20.10;5.75;;;;;;;21.65;73.51;97269.22;4992881;28;20034;-81
2021/06/22 03:14:59;;;;;;;10.88;4.85;;;;;;;21.47;74.13;97264.69;4991330;28;20050;-83
2021/06/22 03:17:24;;;;;;;12.82;4.68;;;;;;;21.50;74.07;97250.00;4991423;28;20015;-80
2021/06/22 03:19:51;;;;;;;13.45;5.03;;;;;;;21.63;73.62;97268.00;4978322;28;20398;-80
2021/06/22 03:22:16;;;;;;;16.27;5.70;;;;;;;21.68;73.25;97264.88;4996149;28;20034;-81
2021/06/22 03:24:42;;;;;;;14.43;4.43;;;;;;;21.77;72.90;97276.50;4995343;28;20030;-81
2021/06/22 03:27:07;;;;;;;16.25;5.13;;;;;;;21.69;72.64;97260.91;4977729;28;20026;-81
2021/06/22 03:29:33;;;;;;;14.18;5.15;;;;;;;21.73;72.37;97276.47;4995310;28;20077;-80
2021/06/22 03:31:58;;;;;;;14.20;7.00;;;;;;;21.72;72.21;97265.72;4995047;28;20052;-80
2021/06/22 03:34:23;;;;;;;14.50;5.78;;;;;;;21.69;72.36;97263.69;4983217;28;20037;-80
2021/06/22 03:36:49;;;;;;;14.30;5.45;;;;;;;21.74;72.65;97268.94;5014397;28;20030;-80
2021/06/22 03:39:14;;;;;;;13.52;5.82;;;;;;;21.71;72.72;97264.09;5013466;28;20489;-80
2021/06/22 03:41:40;;;;;;;13.57;5.47;;;;;;;21.79;72.81;97280.50;4979660;28;20030;-81
2021/06/22 03:44:05;;;;;;;19.63;5.35;;;;;;;21.70;73.04;97270.88;4993379;28;20033;-82
2021/06/22 03:46:31;;;;;;;22.27;5.57;;;;;;;21.68;72.98;97290.72;4976891;28;20453;-80
2021/06/22 03:48:57;;;;;;;17.10;4.80;;;;;;;21.72;73.17;97296.34;4994322;28;20125;-80
2021/06/22 03:51:23;;;;;;;18.75;5.72;;;;;;;21.76;73.28;97305.53;4994343;28;20058;-81
2021/06/22 03:53:48;;;;;;;20.40;5.65;;;;;;;21.68;73.35;97296.28;5010678;28;20368;-80
2021/06/22 03:56:14;;;;;;;16.55;5.18;;;;;;;21.79;73.55;97318.69;4996525;28;20030;-79
2021/06/22 03:58:41;;;;;;;18.48;4.72;;;;;;;21.85;72.97;97312.38;5014162;28;20040;-80
2021/06/22 04:01:07;;;;;;;17.13;5.82;;;;;;;21.94;72.60;97309.28;4996474;28;20485;-80
2021/06/22 04:03:32;;;;;;;14.23;4.90;;;;;;;22.08;71.76;97314.19;5013819;28;20049;-80
2021/06/22 04:05:58;;;;;;;17.08;5.70;;;;;;;22.25;70.82;97319.06;5013472;28;20505;-78
2021/06/22 04:08:23;;;;;;;15.20;5.22;;;;;;;22.01;71.93;97331.66;5013495;28;20037;-80
2021/06/22 04:10:49;;;;;;;18.75;7.07;;;;;;;22.00;71.99;97332.00;4996013;28;20069;-80
2021/06/22 04:13:14;;;;;;;27.63;11.63;;;;;;;22.39;69.17;97330.34;5013822;28;20032;-81
2021/06/22 04:15:40;;;;;;;25.00;11.07;;;;;;;21.93;70.94;97327.19;4996089;28;20116;-80
2021/06/22 04:18:08;;;;;;;22.25;9.15;;;;;;;22.23;69.41;97344.56;5013184;28;20029;-79
2021/06/22 04:20:34;;;;;;;21.48;7.80;;;;;;;22.08;69.17;97347.63;5013415;28;20033;-82
2021/06/22 04:23:01;;;;;;;16.52;6.63;;;;;;;22.12;69.12;97348.44;4996231;28;20041;-73
2021/06/22 04:25:27;;;;;;;24.00;6.30;;;;;;;22.02;68.85;97349.94;5013261;28;20112;-74
2021/06/22 04:27:52;;;;;;;27.65;5.97;;;;;;;21.98;70.03;97351.91;5011736;28;20145;-75
2021/06/22 04:30:18;;;;;;;25.27;6.10;;;;;;;22.12;69.88;97354.81;4994308;28;20081;-75
2021/06/22 04:32:44;;;;;;;21.05;5.90;;;;;;;22.06;69.41;97349.97;4991590;28;20041;-74
2021/06/22 04:35:10;;;;;;;18.08;5.63;;;;;;;22.17;69.62;97360.03;4992020;28;20038;-76
2021/06/22 04:37:36;;;;;;;17.38;6.70;;;;;;;22.13;68.91;97356.41;4993279;28;20497;-74
2021/06/22 04:40:02;;;;;;;22.58;5.97;;;;;;;22.18;68.76;97360.81;4993464;28;20038;-75
2021/06/22 04:42:27;;;;;;;20.80;8.82;;;;;;;22.17;69.13;97360.03;4994007;28;20057;-74
2021/06/22 04:44:56;;;;;;;26.42;7.22;;;;;;;22.18;69.16;97369.19;5000182;28;20034;-75
2021/06/22 04:47:22;;;;;;;17.98;4.63;;;;;;;22.26;68.49;97360.50;5001481;28;20073;-75
2021/06/22 04:49:47;;;;;;;14.00;6.15;;;;;;;22.40;68.18;97362.59;5002411;28;20065;-75
2021/06/22 04:52:13;;;;;;;11.95;4.55;;;;;;;22.52;68.02;97369.84;5000961;28;20367;-73
2021/06/22 04:54:40;;;;;;;23.80;6.50;;;;;;;22.62;67.97;97369.09;5000855;28;20521;-74
2021/06/22 04:57:06;;;;;;;14.65;4.10;;;;;;;22.77;67.72;97368.06;5001562;28;20029;-73
2021/06/22 04:59:33;;;;;;;16.10;6.22;;;;;;;22.87;66.92;97372.88;4993303;28;20471;-72
2021/06/22 05:01:59;;;;;;;14.60;5.88;;;;;;;22.95;66.64;97374.53;5001243;28;20076;-72
2021/06/22 05:04:25;;;;;;;11.65;5.15;;;;;;;23.04;66.19;97358.22;4999743;28;20399;-70
2021/06/22 05:06:50;;;;;;;18.52;5.63;;;;;;;23.15;65.53;97361.84;5002080;28;20056;-71
2021/06/22 05:09:16;;;;;;;16.48;5.88;;;;;;;23.24;65.45;97362.28;4997526;28;20030;-72
2021/06/22 05:11:41;;;;;;;12.35;5.28;;;;;;;23.26;64.93;97362.72;5003892;28;20378;-71
2021/06/22 05:14:08;;;;;;;17.83;6.05;;;;;;;23.33;65.06;97373.91;5001159;28;20072;-71
2021/06/22 05:16:33;;;;;;;18.77;6.10;;;;;;;23.43;64.40;97361.22;5001558;28;20061;-71
2021/06/22 05:18:59;;;;;;;18.08;6.88;;;;;;;23.58;64.22;97362.84;5000636;28;20123;-72
2021/06/22 05:21:25;;;;;;;26.02;6.07;;;;;;;23.74;63.99;97356.91;5001520;28;20037;-76
2021/06/22 05:23:51;;;;;;;18.02;5.63;;;;;;;23.89;63.05;97362.13;5000760;28;20027;-73
2021/06/22 05:26:16;;;;;;;20.80;5.38;;;;;;;24.00;62.73;97362.09;5003844;28;20501;-73
2021/06/22 05:28:42;;;;;;;15.20;4.45;;;;;;;24.08;62.22;97357.34;5006604;28;20038;-73
2021/06/22 05:31:07;;;;;;;17.73;5.72;;;;;;;24.27;61.58;97371.75;5012639;28;20057;-75
2021/06/22 05:33:32;;;;;;;15.27;5.40;;;;;;;24.32;60.70;97374.13;4995423;28;20037;-73
2021/06/22 05:35:58;;;;;;;18.00;5.32;;;;;;;24.19;61.12;97370.13;5012685;28;20489;-80
2021/06/22 05:38:23;;;;;;;18.08;5.60;;;;;;;24.31;60.70;97374.53;5012520;28;20514;-74
2021/06/22 05:40:49;;;;;;;19.15;8.18;;;;;;;24.43;61.44;97382.53;5012506;28;20437;-75
2021/06/22 05:43:14;;;;;;;27.90;7.68;;;;;;;24.45;61.35;97386.53;5011859;28;20032;-74
2021/06/22 05:45:39;;;;;;;32.63;7.25;;;;;;;24.38;60.52;97386.53;5011859;28;20025;-76
2021/06/22 05:48:05;;;;;;;19.35;6.22;;;;;;;24.53;60.43;97392.91;5012086;28;20046;-73
2021/06/22 05:50:31;;;;;;;16.05;6.45;;;;;;;24.67;60.31;97394.91;5011297;28;20030;-73
2021/06/22 05:52:56;;;;;;;22.90;7.25;;;;;;;24.62;60.47;97398.09;5011461;28;20057;-73
2021/06/22 05:55:21;;;;;;;27.67;6.45;;;;;;;24.65;61.33;97402.91;5010995;28;20061;-73
2021/06/22 05:57:53;;;;;;;20.73;7.82;;;;;;;24.68;61.14;97402.91;5011950;28;20025;-74
2021/06/22 06:00:21;;;;;;;22.27;5.25;;;;;;;24.81;60.54;97395.69;5011730;28;20112;-73
2021/06/22 06:02:52;;;;;;;18.38;6.38;;;;;;;24.87;59.14;97398.91;5125246;27;20592;-72
2021/06/22 06:05:18;;;;;;;12.85;5.28;;;;;;;24.96;59.66;97393.69;5108299;28;20036;-74
2021/06/22 06:07:45;;;;;;;15.55;6.05;;;;;;;25.01;59.66;97393.25;5110730;28;20020;-75
2021/06/22 06:10:12;;;;;;;21.98;6.78;;;;;;;25.12;59.66;97398.84;5117087;28;20065;-75
2021/06/22 06:12:37;;;;;;;32.65;9.95;;;;;;;25.06;58.81;97395.63;5112117;28;20024;-73
2021/06/22 06:15:05;;;;;;;18.60;7.10;;;;;;;25.24;59.04;97390.81;5108170;28;20047;-73
2021/06/22 06:17:31;;;;;;;24.58;7.90;;;;;;;25.38;58.88;97390.72;5109208;28;20024;-72
2021/06/22 06:19:56;;;;;;;28.83;6.10;;;;;;;25.43;58.45;97395.94;5107454;28;20464;-73
2021/06/22 06:22:22;;;;;;;22.42;5.93;;;;;;;25.66;58.02;97389.03;5107827;28;20035;-73
2021/06/22 06:24:47;;;;;;;21.98;6.78;;;;;;;25.72;56.89;97398.63;5107682;28;20024;-73
2021/06/22 06:27:15;;;;;;;22.40;5.53;;;;;;;25.77;57.70;97398.19;5107127;28;20074;-72
2021/06/22 06:29:56;;;;;;;21.35;5.53;;;;;;;25.75;57.66;97395.00;5108608;28;20032;-72
2021/06/22 06:32:22;;;;;;;29.63;6.40;;;;;;;25.90;57.23;97402.91;5107065;28;20024;-74
2021/06/22 06:34:47;;;;;;;20.73;6.35;;;;;;;25.99;57.09;97402.47;5107146;28;20387;-73
2021/06/22 06:37:12;;;;;;;17.48;5.78;;;;;;;26.15;56.63;97405.56;5107114;28;20495;-73
2021/06/22 06:39:38;;;;;;;12.55;4.80;;;;;;;26.25;56.20;97415.91;5108835;28;20020;-72
2021/06/22 06:42:04;;;;;;;23.85;6.28;;;;;;;26.25;56.29;97410.31;5108279;28;20097;-72
2021/06/22 06:44:30;;;;;;;16.92;5.45;;;;;;;26.31;56.51;97407.88;5106589;28;20023;-73
2021/06/22 06:46:55;;;;;;;27.05;6.30;;;;;;;26.44;56.80;97414.56;5107997;28;20081;-74
2021/06/22 06:49:21;;;;;;;38.85;9.35;;;;;;;26.58;55.60;97418.06;5108089;28;20028;-74
2021/06/22 06:51:46;;;;;;;20.60;6.38;;;;;;;26.65;55.54;97408.78;5108144;28;20112;-75
2021/06/22 06:54:12;;;;;;;22.50;6.78;;;;;;;26.73;55.31;97415.94;5108063;28;20043;-74
2021/06/22 06:56:37;;;;;;;16.58;4.28;;;;;;;26.75;54.73;97421.91;5106255;28;20074;-73
2021/06/22 06:59:03;;;;;;;11.05;4.35;;;;;;;26.86;54.75;97416.25;5107318;28;20022;-74
2021/06/22 07:01:28;;;;;;;11.60;5.13;;;;;;;26.89;54.20;97418.22;5105984;28;20051;-74
2021/06/22 07:03:55;;;;;;;16.50;5.53;;;;;;;26.80;54.65;97412.25;5106398;28;20467;-74
2021/06/22 07:06:21;;;;;;;18.33;5.55;;;;;;;26.87;54.47;97417.84;5114457;27;20016;-74
2021/06/22 07:08:46;;;;;;;16.98;5.70;;;;;;;26.90;54.58;97417.81;5089794;28;20046;-75
2021/06/22 07:11:12;;;;;;;13.77;5.20;;;;;;;26.95;54.60;97424.97;5087182;28;20029;-74
2021/06/22 07:13:38;;;;;;;21.38;5.32;;;;;;;27.03;54.21;97423.72;5091453;28;20024;-75
2021/06/22 07:16:04;;;;;;;26.40;5.70;;;;;;;27.10;54.20;97426.41;5093248;28;20031;-73
2021/06/22 07:18:31;;;;;;;17.85;4.47;;;;;;;27.15;53.87;97420.38;5092228;28;20042;-73
2021/06/22 07:20:57;;;;;;;13.82;4.32;;;;;;;27.41;53.18;97414.03;5092257;28;20024;-73
2021/06/22 07:23:23;;;;;;;12.30;4.80;;;;;;;27.41;53.52;97416.84;5092744;28;20020;-73
2021/06/22 07:25:48;;;;;;;15.80;4.88;;;;;;;27.55;53.44;97407.47;5092190;28;20107;-73
2021/06/22 07:28:14;;;;;;;10.90;5.10;;;;;;;27.59;53.36;97403.41;5093783;28;20154;-74
2021/06/22 07:30:39;;;;;;;22.45;4.70;;;;;;;27.77;52.78;97413.63;5091822;28;20488;-73
2021/06/22 07:33:05;;;;;;;17.83;7.30;;;;;;;27.84;52.74;97405.09;5093328;28;20081;-73
2021/06/22 07:35:32;;;;;;;21.92;4.47;;;;;;;27.93;52.50;97411.00;5091736;28;20088;-74
2021/06/22 07:37:58;;;;;;;18.20;5.22;;;;;;;28.09;52.26;97409.19;5092995;28;20024;-74
2021/06/22 07:40:24;;;;;;;17.58;5.53;;;;;;;28.24;51.41;97415.38;5091609;28;20024;-74
2021/06/22 07:42:50;;;;;;;16.17;5.68;;;;;;;28.30;51.12;97404.44;5091741;28;20464;-74
2021/06/22 07:45:16;;;;;;;16.40;5.82;;;;;;;28.54;50.06;97412.47;5093228;28;20097;-75
2021/06/22 07:47:42;;;;;;;15.13;5.05;;;;;;;28.44;51.15;97407.03;5093229;28;20488;-74
2021/06/22 07:50:08;;;;;;;19.85;5.60;;;;;;;28.50;50.47;97411.75;5092694;28;20065;-74
2021/06/22 07:52:34;;;;;;;14.35;4.78;;;;;;;28.40;50.17;97404.28;5092954;28;20028;-75
2021/06/22 07:54:59;;;;;;;18.83;5.10;;;;;;;28.44;50.46;97405.03;5092168;28;20055;-74
2021/06/22 07:57:25;;;;;;;15.93;4.88;;;;;;;28.54;50.98;97406.84;5091362;28;20043;-74
2021/06/22 07:59:50;;;;;;;16.42;5.47;;;;;;;28.75;50.93;97404.94;5092332;28;20030;-75
2021/06/22 08:02:15;;;;;;;11.32;4.88;;;;;;;28.97;50.09;97406.16;5091907;28;20496;-76
2021/06/22 08:04:41;;;;;;;16.73;5.57;;;;;;;29.05;49.87;97413.22;5092663;28;20032;-74
2021/06/22 08:07:06;;;;;;;15.55;4.88;;;;;;;29.18;49.26;97417.81;5091301;28;20445;-74
2021/06/22 08:09:32;;;;;;;13.13;4.78;;;;;;;29.33;48.60;97409.91;5089796;28;20055;-75
2021/06/22 08:11:57;;;;;;;17.10;5.82;;;;;;;29.44;48.16;97412.53;5089673;28;20032;-74
2021/06/22 08:14:22;;;;;;;24.25;6.22;;;;;;;29.41;47.93;97400.09;5090095;28;20465;-74
2021/06/22 08:16:48;;;;;;;23.75;5.50;;;;;;;29.46;48.75;97408.03;5091172;28;20027;-73
2021/06/22 08:19:15;;;;;;;18.95;3.92;;;;;;;29.49;48.24;97404.34;5091247;28;20043;-74
2021/06/22 08:21:41;;;;;;;15.45;4.47;;;;;;;29.59;47.57;97411.78;5091176;28;20127;-74
2021/06/22 08:24:07;;;;;;;26.02;5.40;;;;;;;29.53;47.52;97398.63;5090880;28;20103;-72
2021/06/22 08:26:32;;;;;;;27.13;5.35;;;;;;;29.69;47.88;97413.59;5089467;28;20044;-73
2021/06/22 08:28:58;;;;;;;23.50;4.30;;;;;;;29.94;46.79;97403.81;5093505;28;20047;-74
2021/06/22 08:31:24;;;;;;;16.00;4.90;;;;;;;30.06;46.30;97398.31;5093080;28;20024;-73
2021/06/22 08:33:49;;;;;;;13.23;5.07;;;;;;;30.22;46.48;97403.19;5091600;28;20055;-74
2021/06/22 08:36:15;;;;;;;13.00;5.18;;;;;;;30.39;45.83;97407.63;5089517;28;20472;-73
2021/06/22 08:38:41;;;;;;;12.00;4.07;;;;;;;30.58;44.46;97398.28;5091106;28;20023;-73
2021/06/22 08:41:08;;;;;;;27.33;6.30;;;;;;;30.71;44.55;97404.81;5090678;28;20024;-73
2021/06/22 08:43:34;;;;;;;18.27;4.47;;;;;;;30.70;44.25;97400.38;5090814;28;20480;-73
2021/06/22 08:46:02;;;;;;;18.67;4.88;;;;;;;30.85;43.90;97400.84;5089004;28;20384;-73
2021/06/22 08:48:29;;;;;;;10.68;3.75;;;;;;;30.90;43.52;97399.50;5089102;28;20024;-77
2021/06/22 08:50:56;;;;;;;13.20;3.78;;;;;;;31.07;43.32;97403.91;5086346;28;20097;-75
2021/06/22 08:53:22;;;;;;;21.38;5.03;;;;;;;31.14;42.63;97406.53;5090624;28;20011;-74
2021/06/22 08:55:47;;;;;;;13.82;4.53;;;;;;;31.05;42.83;97400.72;5091902;28;20036;-77
2021/06/22 08:58:16;;;;;;;13.27;3.97;;;;;;;31.04;43.07;97404.81;5088477;28;20016;-73
2021/06/22 09:00:44;;;;;;;18.52;4.80;;;;;;;30.87;42.73;97400.38;5088930;28;20032;-75
2021/06/22 09:03:11;;;;;;;16.80;4.15;;;;;;;30.75;43.35;97399.06;5086134;28;20062;-73
2021/06/22 09:05:38;;;;;;;21.85;4.65;;;;;;;30.78;43.78;97404.63;5089423;28;20403;-72
2021/06/22 09:08:03;;;;;;;13.23;4.72;;;;;;;30.85;43.69;97409.31;5089467;28;20020;-72
2021/06/22 09:10:32;;;;;;;22.58;4.25;;;;;;;30.90;43.50;97403.13;5090611;28;20085;-73
2021/06/22 09:13:19;;;;;;;16.05;3.78;;;;;;;31.02;42.61;97404.44;5090516;28;20028;-73
2021/06/22 09:15:47;;;;;;;15.93;4.72;;;;;;;31.09;42.65;97421.22;5091129;28;20024;-71
2021/06/22 09:18:30;;;;;;;17.77;3.67;;;;;;;31.12;42.76;97423.16;5089975;28;20039;-77
2021/06/22 09:21:06;;;;;;;13.82;4.68;;;;;;;31.28;42.65;97409.78;5092105;28;20028;-74
2021/06/22 09:23:35;;;;;;;27.52;4.53;;;;;;;31.53;41.77;97411.94;5090753;28;20032;-72
2021/06/22 09:26:09;;;;;;;19.13;4.43;;;;;;;31.36;41.97;97416.03;5090683;28;20021;-73
2021/06/22 09:28:35;;;;;;;18.15;4.07;;;;;;;31.42;41.87;97419.88;5091190;28;20632;-76
2021/06/22 09:31:05;;;;;;;11.90;4.15;;;;;;;31.33;41.18;97412.06;5092157;28;20024;-74
2021/06/22 09:33:30;;;;;;;18.42;4.68;;;;;;;31.27;41.72;97415.88;5088941;28;20032;-75
2021/06/22 09:36:20;;;;;;;19.05;4.60;;;;;;;31.11;41.52;97422.34;5088594;28;20016;-75
2021/06/22 09:38:52;;;;;;;13.05;3.75;;;;;;;31.17;42.42;97414.16;5088861;28;20399;-75
2021/06/22 09:41:25;;;;;;;10.43;4.05;;;;;;;31.31;41.46;97414.56;5090124;28;20024;-74
2021/06/22 09:44:07;;;;;;;19.30;5.18;;;;;;;31.12;42.17;97411.84;5089945;28;20097;-75
2021/06/22 09:46:53;;;;;;;19.25;4.78;;;;;;;31.18;41.75;97410.06;5088658;28;20123;-77
2021/06/22 09:49:26;;;;;;;;;;;;;;;31.20;41.30;97407.59;5090671;28;20016;-76
2021/06/22 09:54:26;;;;;;;19.10;5.90;;;;;;;31.38;41.20;97399.41;5090152;28;20016;-74
2021/06/22 09:57:05;;;;;;;12.55;3.88;;;;;;;31.50;41.35;97410.00;5088696;28;20059;-73
2021/06/22 09:59:52;;;;;;;13.85;4.28;;;;;;;31.66;41.21;97401.47;5089918;28;20394;-74
2021/06/22 10:02:21;;;;;;;16.85;3.92;;;;;;;31.83;40.58;97397.28;5089283;28;20048;-76
2021/06/22 10:04:48;;;;;;;18.75;5.00;;;;;;;31.93;40.46;97397.41;5090199;28;20031;-76
2021/06/22 10:07:16;;;;;;;15.32;3.88;;;;;;;32.07;39.58;97405.53;5089033;28;20032;-76
2021/06/22 10:09:42;;;;;;;14.02;4.28;;;;;;;32.07;39.85;97411.19;5090351;28;20483;-77
2021/06/22 10:12:09;;;;;;;15.82;3.70;;;;;;;32.05;39.47;97408.78;5089797;28;20040;-77
2021/06/22 10:14:44;;;;;;;23.98;4.47;;;;;;;32.11;39.48;97400.56;5088581;28;20140;-76
2021/06/22 10:17:15;;;;;;;23.88;4.50;;;;;;;32.18;39.41;97403.94;5088748;28;20032;-75
2021/06/22 10:19:45;;;;;;;18.60;4.68;;;;;;;32.22;39.04;97401.00;5082111;28;20050;-77
2021/06/22 10:22:10;;;;;;;16.15;4.18;;;;;;;32.26;39.46;97405.31;5083980;28;20540;-78
2021/06/22 10:24:38;;;;;;;21.27;5.00;;;;;;;32.34;39.04;97405.88;5086614;28;20122;-77
2021/06/22 10:27:04;;;;;;;18.35;5.18;;;;;;;32.38;38.93;97389.56;5087933;28;20123;-77
2021/06/22 10:29:31;;;;;;;17.58;4.50;;;;;;;32.35;38.81;97413.91;5086669;28;20020;-78
2021/06/22 10:31:58;;;;;;;15.27;3.47;;;;;;;32.36;38.55;97409.81;5087097;28;20024;-77
2021/06/22 10:34:24;;;;;;;18.38;4.40;;;;;;;32.29;38.79;97400.78;5086805;28;20031;-76
2021/06/22 10:36:57;;;;;;;19.77;5.13;;;;;;;32.23;38.80;97396.94;5087355;28;20024;-77
2021/06/22 10:39:30;;;;;;;20.13;4.97;;;;;;;32.24;38.89;97402.13;5086366;28;20064;-76
2021/06/22 10:41:58;;;;;;;19.02;5.00;;;;;;;32.19;38.86;97407.56;5087696;28;20032;-77
2021/06/22 10:44:27;;;;;;;26.40;5.07;;;;;;;32.14;39.19;97397.59;5085590;28;20671;-74
2021/06/22 10:47:19;;;;;;;16.67;5.07;;;;;;;32.26;38.55;97401.69;5086525;28;20392;-78
2021/06/22 10:50:08;;;;;;;18.77;4.80;;;;;;;32.19;38.94;97394.22;5088656;28;20039;-76
2021/06/22 10:52:43;;;;;;;17.48;3.47;;;;;;;32.20;38.77;97404.25;5092487;28;20024;-74
2021/06/22 10:55:08;;;;;;;22.88;4.75;;;;;;;32.22;38.58;97398.16;5089566;28;20482;-74
2021/06/22 10:58:02;;;;;;;15.77;4.38;;;;;;;32.13;38.74;97400.88;5091837;28;20136;-77
2021/06/22 11:00:37;;;;;;;19.05;3.75;;;;;;;32.22;37.76;97395.34;5091248;28;20386;-78
2021/06/22 11:03:06;;;;;;;16.70;4.60;;;;;;;32.26;37.17;97391.16;5091462;28;20480;-78
2021/06/22 11:05:34;;;;;;;19.85;5.07;;;;;;;32.24;37.85;97399.28;5091511;28;20464;-77
2021/06/22 11:08:09;;;;;;;15.45;4.95;;;;;;;32.14;37.62;97391.91;5092476;28;20027;-74
2021/06/22 11:10:54;;;;;;;21.55;3.85;;;;;;;32.14;37.43;97385.50;5092374;28;20032;-75
2021/06/22 11:13:47;;;;;;;15.00;3.90;;;;;;;32.21;37.89;97388.88;5092965;28;20035;-76
2021/06/22 11:16:18;;;;;;;14.45;5.00;;;;;;;32.20;37.51;97383.69;5093592;28;20028;-78
2021/06/22 11:18:53;;;;;;;18.77;4.45;;;;;;;32.20;37.02;97392.19;5090639;28;20036;-78
2021/06/22 11:21:22;;;;;;;14.00;3.95;;;;;;;32.03;36.89;97390.66;5091520;28;20035;-77
2021/06/22 11:24:04;;;;;;;20.55;3.78;;;;;;;32.04;36.21;97381.75;5093331;28;20028;-76
2021/06/22 11:26:31;;;;;;;13.70;3.97;;;;;;;31.98;36.29;97397.69;5091504;28;20076;-75
2021/06/22 11:29:02;;;;;;;12.13;4.25;;;;;;;31.99;35.51;97392.78;5091628;28;20028;-76